Wheeler Army Airfield, Hawaii
Current Conditions -  °F | °C
As of 5:58 PM on Sunday 23 Nov 2014 (Local Time) from PHHI Reporting Station
Broken Clouds Broken Clouds  
Wind Chill: 75°   Ceiling: 3900
Heat Index: 75°   Visibility: 10mi
Dew Point: 65°   Wind: 2mph
Humidity: 70%   Direction: NA
Pressure: 29.92"   Gusts: NA
Location:  21.4859°N, 158.036°W
Report Text: PHHI 240358Z AUTO VRB02KT 10SM BKN039 24/18 A2992 RMK AO2 SLP124 T02400183 $
Loading
Personal Weather Stations






























Interactive Weather Map New forecast layout! Learn more

10-Day Weather Forecast

Advertisements
Track Severe Weather on mobile